KFMN

Four Corners Regional Airport

Farmington, New Mexico, USA
METAR KFMN 160953Z AUTO 08007KT 10SM CLR M10/M14 A3002 RMK AO2 SLP189 T11001144 $
Observed Flight Rules
Dec-16 @ 09:53 UTC (53 minutes ago) Visual Flight Rules
Wind Visibility Clouds
80° at 7 knots 10 miles
  • Clear skies
Temperatures Readings
Current -10°C / 14°F
Dewpoint -14°C / 7°F
Humidity 73%
Altimeter 30.02" Hg
Pressure 1018.9 hPa
Elevation 1685
METAR KFMN 160953Z AUTO 08007KT 10SM CLR M10/M14 A3002 RMK AO2 SLP189 T11001144 $
Observed Flight Rules
Dec-16 @ 09:53 UTC
(53 minutes ago)
VFR
Wind Visibility
80° at 7 knots 10 miles
Clouds
  • Clear skies
Temperature Dewpoint
-10°C / 14°F -14°C / 7°F
Humidity Altimeter Pressure
73% 30.02" Hg 1018.9 hPa